createdAt,value
2023-04-14T00:00:36.997Z,100796.06
2023-04-14T00:03:04.087Z,100793.53
2023-04-14T00:05:31.869Z,100801.47
2023-04-14T00:07:58.731Z,100801.59
2023-04-14T00:10:26.225Z,100792.47
2023-04-14T00:12:53.729Z,100800.94
2023-04-14T00:15:20.296Z,100805.50
2023-04-14T00:17:46.893Z,100799.56
2023-04-14T00:20:13.430Z,100809.34
2023-04-14T00:22:39.860Z,100808.47
2023-04-14T00:25:06.676Z,100802.44
2023-04-14T00:27:33.267Z,100813.13
2023-04-14T00:29:59.725Z,100813.13
2023-04-14T00:32:26.208Z,100819.47
2023-04-14T00:34:52.731Z,100809.84
2023-04-14T00:37:19.308Z,100789.03
2023-04-14T00:39:45.932Z,100828.06
2023-04-14T00:42:12.469Z,100829.22
2023-04-14T00:44:38.922Z,100791.97
2023-04-14T00:47:05.685Z,100822.34
2023-04-14T00:49:32.212Z,100834.31
2023-04-14T00:51:59.179Z,100826.03
2023-04-14T00:54:25.693Z,100836.19
2023-04-14T00:56:53.988Z,100815.06
2023-04-14T00:59:20.889Z,100830.38
2023-04-14T01:01:47.393Z,100840.44
2023-04-14T01:04:14.430Z,100830.06
2023-04-14T01:06:41.442Z,100817.81
2023-04-14T01:09:09.308Z,100842.66
2023-04-14T01:11:55.606Z,100840.84
2023-04-14T01:14:52.617Z,100836.63
2023-04-14T01:17:29.357Z,100830.69
2023-04-14T01:20:37.578Z,100833.34
2023-04-14T01:23:22.557Z,100831.97
2023-04-14T01:26:17.472Z,100832.81
2023-04-14T01:28:56.145Z,100829.34
2023-04-14T01:31:27.189Z,100832.38
2023-04-14T01:34:03.254Z,100837.25
2023-04-14T01:36:51.345Z,100851.09
2023-04-14T01:39:21.361Z,100834.53
2023-04-14T01:41:56.242Z,100839.47
2023-04-14T01:44:25.331Z,100840.31
2023-04-14T01:47:04.522Z,100833.34
2023-04-14T01:49:34.039Z,100838.41
2023-04-14T01:52:04.098Z,100823.19
2023-04-14T01:54:31.977Z,100844.66
2023-04-14T01:57:01.712Z,100832.38
2023-04-14T01:59:30.638Z,100821.91
2023-04-14T02:02:00.864Z,100844.25
2023-04-14T02:04:29.298Z,100834.06
2023-04-14T02:06:59.122Z,100849.75
2023-04-14T02:09:28.005Z,100798.97
2023-04-14T02:11:55.637Z,100840.53
2023-04-14T02:14:23.737Z,100846.13
2023-04-14T02:16:52.734Z,100836.72
2023-04-14T02:19:21.730Z,100814.38
2023-04-14T02:21:50.961Z,100839.97
2023-04-14T02:24:18.231Z,100838.69
2023-04-14T02:26:53.525Z,100838.69
2023-04-14T02:29:23.577Z,100845.13
2023-04-14T02:31:57.357Z,100838.56
2023-04-14T02:34:28.258Z,100839.81
2023-04-14T02:36:57.907Z,100851.78
2023-04-14T02:39:34.978Z,100856.22
2023-04-14T02:42:08.062Z,100854.72
2023-04-14T02:44:38.779Z,100862.75
2023-04-14T02:47:08.819Z,100836.59
2023-04-14T02:49:43.290Z,100859.56
2023-04-14T02:52:11.865Z,100859.88
2023-04-14T02:54:41.629Z,100867.06
2023-04-14T02:57:08.916Z,100860.38
2023-04-14T02:59:36.425Z,100861.31
2023-04-14T03:02:05.272Z,100873.66
2023-04-14T03:04:36.576Z,100869.31
2023-04-14T03:07:04.717Z,100878.09
2023-04-14T03:09:32.184Z,100856.63
2023-04-14T03:12:01.058Z,100865.84
2023-04-14T03:14:28.299Z,100820.22
2023-04-14T03:16:56.988Z,100853.44
2023-04-14T03:19:24.008Z,100880.53
2023-04-14T03:21:51.344Z,100873.13
2023-04-14T03:24:24.736Z,100867.00
2023-04-14T03:26:58.504Z,100878.09
2023-04-14T03:29:36.298Z,100884.31
2023-04-14T03:32:06.926Z,100870.78
2023-04-14T03:34:35.004Z,100868.75
2023-04-14T03:37:04.340Z,100896.16
2023-04-14T03:39:34.457Z,100884.84
2023-04-14T03:42:08.336Z,100885.78
2023-04-14T03:44:37.759Z,100880.78
2023-04-14T03:47:08.035Z,100889.56
2023-04-14T03:49:39.327Z,100884.38
2023-04-14T03:52:08.911Z,100886.25
2023-04-14T03:54:39.054Z,100887.09
2023-04-14T03:57:08.735Z,100890.59
2023-04-14T03:59:38.277Z,100889.66
2023-04-14T04:02:06.657Z,100841.47
2023-04-14T04:04:35.702Z,100882.66
2023-04-14T04:07:02.978Z,100891.34
2023-04-14T04:09:31.054Z,100889.56
2023-04-14T04:11:59.978Z,100888.81
2023-04-14T04:14:29.928Z,100849.09
2023-04-14T04:16:59.512Z,100902.56
2023-04-14T04:19:26.256Z,100899.84
2023-04-14T04:21:57.475Z,100910.41
2023-04-14T04:24:27.344Z,100895.88
2023-04-14T04:26:54.270Z,100906.72
2023-04-14T04:29:22.854Z,100866.97
2023-04-14T04:31:49.625Z,100897.78
2023-04-14T04:34:19.433Z,100902.94
2023-04-14T04:36:47.886Z,100912.28
2023-04-14T04:39:17.483Z,100882.72
2023-04-14T04:41:43.995Z,100909.72
2023-04-14T04:44:10.547Z,100871.63
2023-04-14T04:46:53.601Z,100914.72
2023-04-14T04:49:20.733Z,100909.06
2023-04-14T04:51:47.757Z,100909.53
2023-04-14T04:54:14.523Z,100907.19
2023-04-14T04:56:41.379Z,100913.78
2023-04-14T04:59:07.835Z,100901.91
2023-04-14T05:01:34.458Z,100919.06
2023-04-14T05:04:01.539Z,100883.47
2023-04-14T05:06:28.271Z,100906.06
2023-04-14T05:08:55.404Z,100911.69
2023-04-14T05:11:22.194Z,100921.28
2023-04-14T05:13:48.697Z,100914.22
2023-04-14T05:16:15.604Z,100918.47
2023-04-14T05:18:42.543Z,100909.78
2023-04-14T05:21:10.956Z,100879.31
2023-04-14T05:23:38.345Z,100917.22
2023-04-14T05:26:26.939Z,100918.75
2023-04-14T05:28:52.733Z,100915.97
2023-04-14T05:31:20.176Z,100923.50
2023-04-14T05:33:46.768Z,100929.34
2023-04-14T05:36:13.251Z,100921.94
2023-04-14T05:38:42.305Z,100900.59
2023-04-14T05:41:09.323Z,100926.56
2023-04-14T05:43:35.912Z,100901.66
2023-04-14T05:46:02.616Z,100905.22
2023-04-14T05:48:33.345Z,100923.22
2023-04-14T05:51:00.004Z,100928.75
2023-04-14T05:53:27.438Z,100923.03
2023-04-14T05:55:54.406Z,100926.53
2023-04-14T05:58:21.572Z,100926.69
2023-04-14T06:00:48.166Z,100904.31
2023-04-14T06:03:16.286Z,100926.34
2023-04-14T06:05:43.154Z,100914.69
2023-04-14T06:08:09.638Z,100928.75
2023-04-14T06:10:36.255Z,100926.53
2023-04-14T06:13:02.921Z,100931.63
2023-04-14T06:15:29.828Z,100941.16
2023-04-14T06:17:56.493Z,100934.44
2023-04-14T06:20:23.047Z,100936.69
2023-04-14T06:22:49.498Z,100929.28
2023-04-14T06:25:16.383Z,100917.28
2023-04-14T06:27:43.376Z,100919.38
2023-04-14T06:30:10.191Z,100875.22
2023-04-14T06:32:36.827Z,100942.34
2023-04-14T06:35:04.849Z,100938.78
2023-04-14T06:37:32.131Z,100913.09
2023-04-14T06:39:58.649Z,100896.75
2023-04-14T06:42:25.691Z,100909.25
2023-04-14T06:44:52.273Z,100927.66
2023-04-14T06:47:19.712Z,100929.75
2023-04-14T06:49:46.205Z,100917.03
2023-04-14T06:52:12.690Z,100897.41
2023-04-14T06:54:40.733Z,100927.22
2023-04-14T06:57:07.243Z,100912.94
2023-04-14T06:59:33.759Z,100929.91
2023-04-14T07:02:00.864Z,100927.84
2023-04-14T07:04:27.525Z,100927.47
2023-04-14T07:06:59.241Z,100932.31
2023-04-14T07:09:25.681Z,100923.69
2023-04-14T07:11:53.531Z,100908.59
2023-04-14T07:14:20.337Z,100932.31
2023-04-14T07:16:47.828Z,100910.94
2023-04-14T07:19:15.550Z,100936.13
2023-04-14T07:21:41.947Z,100933.34
2023-04-14T07:24:09.497Z,100943.78
2023-04-14T07:26:36.401Z,100925.41
2023-04-14T07:29:03.065Z,100908.59
2023-04-14T07:31:33.965Z,100937.81
2023-04-14T07:34:02.813Z,100926.63
2023-04-14T07:36:30.805Z,100931.44
2023-04-14T07:38:57.333Z,100877.47
2023-04-14T07:41:25.637Z,100922.34
2023-04-14T07:43:55.425Z,100949.06
2023-04-14T07:46:22.448Z,100934.75
2023-04-14T07:48:49.044Z,100884.63
2023-04-14T07:51:15.676Z,100926.91
2023-04-14T07:53:43.661Z,100919.03
2023-04-14T07:56:10.481Z,100919.03
2023-04-14T07:58:37.114Z,100918.31
2023-04-14T08:01:04.853Z,100938.38
2023-04-14T08:03:31.708Z,100946.41
2023-04-14T08:05:58.300Z,100948.06
2023-04-14T08:08:25.956Z,100951.72
2023-04-14T08:10:52.512Z,100942.81
2023-04-14T08:13:18.940Z,100947.97
2023-04-14T08:15:45.753Z,100951.63
2023-04-14T08:18:12.429Z,100946.41
2023-04-14T08:20:38.968Z,100920.38
2023-04-14T08:23:05.539Z,100943.94
2023-04-14T08:25:32.035Z,100953.72
2023-04-14T08:27:58.592Z,100934.88
2023-04-14T08:30:25.083Z,100948.69
2023-04-14T08:32:51.882Z,100928.53
2023-04-14T08:35:38.739Z,100927.66
2023-04-14T08:38:04.973Z,100911.56
2023-04-14T08:40:40.146Z,100943.34
2023-04-14T08:43:07.073Z,100916.41
2023-04-14T08:45:34.233Z,100937.97
2023-04-14T08:48:02.882Z,100941.44
2023-04-14T08:50:37.117Z,100945.56
2023-04-14T08:53:08.548Z,100936.56
2023-04-14T08:55:39.327Z,100947.72
2023-04-14T08:58:08.103Z,100940.72
2023-04-14T09:00:35.172Z,100946.50
2023-04-14T09:03:02.345Z,100952.91
2023-04-14T09:05:29.587Z,100948.06
2023-04-14T09:07:56.796Z,100903.91
2023-04-14T09:10:23.614Z,100944.22
2023-04-14T09:12:50.652Z,100942.41
2023-04-14T09:15:17.107Z,100932.34
2023-04-14T09:17:44.198Z,100908.31
2023-04-14T09:20:37.651Z,100914.19
2023-04-14T09:22:58.852Z,100940.38
2023-04-14T09:25:26.058Z,100940.38
2023-04-14T09:27:52.864Z,100897.00
2023-04-14T09:30:20.603Z,100934.75
2023-04-14T09:32:57.774Z,100931.19
2023-04-14T09:35:43.696Z,100940.19
2023-04-14T09:38:10.338Z,100931.22
2023-04-14T09:40:39.018Z,100935.66
2023-04-14T09:43:05.955Z,100937.59
2023-04-14T09:45:45.711Z,100946.19
2023-04-14T09:48:13.015Z,100938.75
2023-04-14T09:51:10.014Z,100949.41
2023-04-14T09:53:38.264Z,100946.06
2023-04-14T09:56:07.043Z,100955.22
2023-04-14T09:58:36.139Z,100954.78
2023-04-14T10:01:05.726Z,100948.88
2023-04-14T10:03:40.461Z,100897.78
2023-04-14T10:06:19.210Z,100938.66
2023-04-14T10:08:48.649Z,100948.34
2023-04-14T10:11:29.604Z,100942.88
2023-04-14T10:13:58.895Z,100948.28
2023-04-14T10:16:26.561Z,100934.13
2023-04-14T10:18:54.624Z,100938.22
2023-04-14T10:21:24.347Z,100931.16
2023-04-14T10:23:51.710Z,100915.63
2023-04-14T10:26:19.394Z,100914.03
2023-04-14T10:28:53.795Z,100908.03
2023-04-14T10:31:20.361Z,100916.09
2023-04-14T10:33:47.038Z,100914.84
2023-04-14T10:36:23.482Z,100918.56
2023-04-14T10:38:50.245Z,100894.56
2023-04-14T10:41:19.484Z,100910.06
2023-04-14T10:43:45.911Z,100899.22
2023-04-14T10:46:12.508Z,100885.84
2023-04-14T10:48:41.136Z,100914.91
2023-04-14T10:51:09.843Z,100904.69
2023-04-14T10:53:48.579Z,100879.84
2023-04-14T10:56:15.076Z,100893.56
2023-04-14T10:58:42.087Z,100904.28
2023-04-14T11:01:22.940Z,100912.94
2023-04-14T11:03:49.897Z,100897.47
2023-04-14T11:06:48.231Z,100899.81
2023-04-14T11:09:32.273Z,100909.19
2023-04-14T11:12:23.257Z,100868.72
2023-04-14T11:14:54.475Z,100874.81
2023-04-14T11:17:24.664Z,100904.53
2023-04-14T11:19:55.222Z,100905.66
2023-04-14T11:22:39.195Z,100871.88
2023-04-14T11:25:08.125Z,100898.44
2023-04-14T11:27:35.676Z,100888.22
2023-04-14T11:30:02.140Z,100896.94
2023-04-14T11:32:28.751Z,100847.25
2023-04-14T11:34:55.280Z,100878.50
2023-04-14T11:37:22.870Z,100900.63
2023-04-14T11:39:50.320Z,100903.66
2023-04-14T11:42:17.036Z,100907.56
2023-04-14T11:44:43.473Z,100898.31
2023-04-14T11:47:09.929Z,100888.88
2023-04-14T11:49:37.683Z,100894.88
2023-04-14T11:52:06.199Z,100884.22
2023-04-14T11:54:39.211Z,100850.38
2023-04-14T11:57:13.253Z,100893.84
2023-04-14T11:59:44.060Z,100894.50
2023-04-14T12:02:18.876Z,100899.13
2023-04-14T12:04:49.258Z,100883.03
2023-04-14T12:07:18.947Z,100864.06
2023-04-14T12:09:47.216Z,100887.66
2023-04-14T12:12:16.931Z,100883.28
2023-04-14T12:14:48.530Z,100887.28
2023-04-14T12:17:16.469Z,100886.00
2023-04-14T12:19:44.499Z,100880.91
2023-04-14T12:22:11.891Z,100873.44
2023-04-14T12:24:43.140Z,100833.56
2023-04-14T12:27:10.095Z,100841.97
2023-04-14T12:29:37.098Z,100887.91
2023-04-14T12:32:14.052Z,100872.31
2023-04-14T12:34:40.886Z,100866.69
2023-04-14T12:37:09.800Z,100873.53
2023-04-14T12:40:00.755Z,100872.38
2023-04-14T12:42:28.977Z,100864.94
2023-04-14T12:44:57.849Z,100876.78
2023-04-14T12:47:33.222Z,100876.31
2023-04-14T12:50:02.321Z,100878.72
2023-04-14T12:52:40.966Z,100872.09
2023-04-14T12:55:19.026Z,100855.31
2023-04-14T12:57:45.727Z,100870.16
2023-04-14T13:00:13.739Z,100875.53
2023-04-14T13:02:43.497Z,100833.28
2023-04-14T13:05:12.034Z,100844.69
2023-04-14T13:07:38.580Z,100869.47
2023-04-14T13:10:05.823Z,100864.25
2023-04-14T13:12:32.342Z,100856.16
2023-04-14T13:14:58.831Z,100859.50
2023-04-14T13:17:25.676Z,100847.66
2023-04-14T13:19:52.277Z,100844.19
2023-04-14T13:22:18.718Z,100843.47
2023-04-14T13:24:45.591Z,100846.59
2023-04-14T13:27:12.270Z,100733.47
2023-04-14T13:29:41.098Z,100831.34
2023-04-14T13:32:12.859Z,100821.66
2023-04-14T13:34:40.263Z,100818.78
2023-04-14T13:37:06.740Z,100812.56
2023-04-14T13:39:33.282Z,100806.13
2023-04-14T13:41:59.771Z,100810.38
2023-04-14T13:44:26.231Z,100800.81
2023-04-14T13:46:53.041Z,100801.88
2023-04-14T13:49:19.597Z,100814.22
2023-04-14T13:51:46.593Z,100812.16
2023-04-14T13:54:13.061Z,100812.22
2023-04-14T13:56:39.493Z,100796.16
2023-04-14T13:59:06.030Z,100800.31
2023-04-14T14:01:32.619Z,100804.72
2023-04-14T14:03:59.356Z,100779.44
2023-04-14T14:06:26.381Z,100811.38
2023-04-14T14:09:06.085Z,100783.63
2023-04-14T14:11:33.282Z,100783.56
2023-04-14T14:14:00.275Z,100807.69
2023-04-14T14:18:56.510Z,100772.13
2023-04-14T14:21:22.950Z,100734.81
2023-04-14T14:23:49.605Z,100789.59
2023-04-14T14:26:16.118Z,100778.59
2023-04-14T14:28:42.755Z,100760.47
2023-04-14T14:31:09.283Z,100796.41
2023-04-14T14:33:35.784Z,100791.84
2023-04-14T14:36:02.716Z,100759.53
2023-04-14T14:38:29.423Z,100783.13
2023-04-14T14:40:55.981Z,100767.69
2023-04-14T14:43:22.435Z,100784.81
2023-04-14T14:45:48.938Z,100791.63
2023-04-14T14:48:17.173Z,100782.69
2023-04-14T14:50:43.817Z,100787.47
2023-04-14T14:53:10.187Z,100798.06
2023-04-14T14:55:36.676Z,100778.25
2023-04-14T14:58:04.026Z,100786.09
2023-04-14T15:00:30.764Z,100782.81
2023-04-14T15:02:57.407Z,100767.66
2023-04-14T15:05:23.971Z,100782.59
2023-04-14T15:07:50.906Z,100791.78
2023-04-14T15:10:17.557Z,100781.38
2023-04-14T15:12:44.331Z,100789.81
2023-04-14T15:15:11.428Z,100788.22
2023-04-14T15:17:37.981Z,100778.59
2023-04-14T15:20:04.881Z,100781.84
2023-04-14T15:22:32.080Z,100787.94
2023-04-14T15:24:58.940Z,100783.63
2023-04-14T15:27:25.397Z,100732.06
2023-04-14T15:29:52.014Z,100791.53
2023-04-14T15:32:27.285Z,100800.84
2023-04-14T15:34:54.743Z,100768.03
2023-04-14T15:37:21.896Z,100704.91
2023-04-14T15:39:48.462Z,100749.78
2023-04-14T15:42:15.707Z,100747.09
2023-04-14T15:44:45.190Z,100734.66
2023-04-14T15:47:12.382Z,100781.41
2023-04-14T15:49:39.022Z,100710.63
2023-04-14T15:52:06.303Z,100774.72
2023-04-14T15:54:33.722Z,100787.00
2023-04-14T15:57:00.266Z,100785.34
2023-04-14T15:59:28.704Z,100785.25
2023-04-14T16:01:56.192Z,100757.69
2023-04-14T16:04:24.124Z,100778.22
2023-04-14T16:07:02.758Z,100715.47
2023-04-14T16:09:29.293Z,100790.66
2023-04-14T16:11:56.953Z,100786.53
2023-04-14T16:14:23.477Z,100761.66
2023-04-14T16:16:50.462Z,100787.34
2023-04-14T16:19:17.121Z,100782.38
2023-04-14T16:21:43.584Z,100784.94
2023-04-14T16:24:10.676Z,100766.59
2023-04-14T16:26:38.347Z,100794.00
2023-04-14T16:29:05.048Z,100780.69
2023-04-14T16:31:31.791Z,100793.03
2023-04-14T16:33:58.762Z,100793.38
2023-04-14T16:36:26.354Z,100788.25
2023-04-14T16:38:53.774Z,100793.06
2023-04-14T16:41:20.499Z,100789.28
2023-04-14T16:43:47.670Z,100758.97
2023-04-14T16:46:14.427Z,100773.78
2023-04-14T16:48:41.763Z,100760.03
2023-04-14T16:51:09.507Z,100763.03
2023-04-14T16:53:37.625Z,100776.03
2023-04-14T16:56:08.862Z,100793.22
2023-04-14T16:58:38.054Z,100786.25
2023-04-14T17:01:06.125Z,100790.63
2023-04-14T17:03:33.047Z,100764.88
2023-04-14T17:05:59.672Z,100798.34
2023-04-14T17:08:26.592Z,100801.50
2023-04-14T17:10:53.119Z,100797.97
2023-04-14T17:13:19.775Z,100780.22
2023-04-14T17:15:49.453Z,100804.66
2023-04-14T17:18:19.770Z,100792.78
2023-04-14T17:20:46.228Z,100806.84
2023-04-14T17:23:13.815Z,100805.81
2023-04-14T17:25:41.285Z,100807.03
2023-04-14T17:28:07.751Z,100797.28
2023-04-14T17:30:36.556Z,100814.00
2023-04-14T17:33:04.250Z,100808.19
2023-04-14T17:35:31.761Z,100818.31
2023-04-14T17:37:58.293Z,100809.59
2023-04-14T17:40:25.328Z,100787.09
2023-04-14T17:42:52.015Z,100809.72
2023-04-14T17:45:23.051Z,100787.72
2023-04-14T17:47:51.014Z,100809.34
2023-04-14T17:50:18.197Z,100812.47
2023-04-14T17:52:45.619Z,100822.97
2023-04-14T17:55:12.682Z,100790.34
2023-04-14T17:57:39.659Z,100821.03
2023-04-14T18:00:09.170Z,100815.06
2023-04-14T18:02:38.322Z,100825.25
2023-04-14T18:05:09.087Z,100829.84
2023-04-14T18:07:36.891Z,100829.44
2023-04-14T18:10:03.622Z,100809.97
2023-04-14T18:12:30.911Z,100778.75
2023-04-14T18:14:57.420Z,100839.00
2023-04-14T18:17:24.768Z,100835.03
2023-04-14T18:19:51.514Z,100811.16
2023-04-14T18:22:18.274Z,100840.59
2023-04-14T18:29:43.844Z,100805.97
2023-04-14T18:32:10.370Z,100852.88
2023-04-14T18:34:36.862Z,100853.78
2023-04-14T18:37:04.094Z,100845.69
2023-04-14T18:39:37.378Z,100839.13
2023-04-14T18:42:04.610Z,100843.91
2023-04-14T18:44:31.256Z,100844.63
2023-04-14T18:46:57.745Z,100846.50
2023-04-14T18:49:24.479Z,100854.94
2023-04-14T18:51:51.584Z,100854.53
2023-04-14T18:54:18.858Z,100850.03
2023-04-14T18:56:45.976Z,100833.78
2023-04-14T18:59:12.653Z,100854.41
2023-04-14T19:01:39.452Z,100861.19
2023-04-14T19:04:07.779Z,100867.63
2023-04-14T19:06:34.675Z,100867.47
2023-04-14T19:09:01.778Z,100854.56
2023-04-14T19:11:28.979Z,100868.88
2023-04-14T19:13:55.682Z,100876.34
2023-04-14T19:16:22.628Z,100843.97
2023-04-14T19:18:49.363Z,100883.47
2023-04-14T19:21:16.212Z,100867.13
2023-04-14T19:23:43.142Z,100879.94
2023-04-14T19:26:11.387Z,100880.06
2023-04-14T19:28:42.357Z,100882.88
2023-04-14T19:31:09.106Z,100874.03
2023-04-14T19:33:35.663Z,100851.13
2023-04-14T19:36:02.500Z,100882.94
2023-04-14T19:38:29.058Z,100880.66
2023-04-14T19:40:56.334Z,100883.06
2023-04-14T19:43:22.945Z,100881.09
2023-04-14T19:45:53.873Z,100850.34
2023-04-14T19:48:23.773Z,100881.81
2023-04-14T19:50:54.692Z,100845.84
2023-04-14T19:53:23.348Z,100875.63
2023-04-14T19:55:51.186Z,100877.44
2023-04-14T19:58:21.679Z,100882.50
2023-04-14T20:00:51.418Z,100879.56
2023-04-14T20:03:19.331Z,100880.28
2023-04-14T20:05:50.122Z,100872.53
2023-04-14T20:08:17.073Z,100838.00
2023-04-14T20:10:43.612Z,100852.59
2023-04-14T20:13:10.213Z,100865.94
2023-04-14T20:15:40.124Z,100862.72
2023-04-14T20:18:06.560Z,100865.25
2023-04-14T20:20:33.305Z,100833.53
2023-04-14T20:23:01.582Z,100864.69
2023-04-14T20:25:28.114Z,100840.09
2023-04-14T20:27:54.679Z,100857.66
2023-04-14T20:30:21.958Z,100836.03
2023-04-14T20:32:48.904Z,100850.53
2023-04-14T20:35:15.621Z,100860.75
2023-04-14T20:37:42.199Z,100852.88
2023-04-14T20:40:08.901Z,100803.16
2023-04-14T20:42:35.652Z,100851.19
2023-04-14T20:45:02.130Z,100827.34
2023-04-14T20:47:28.750Z,100841.66
2023-04-14T20:49:55.412Z,100849.69
2023-04-14T20:52:22.890Z,100846.16
2023-04-14T20:54:49.512Z,100847.84
2023-04-14T20:57:15.933Z,100782.81
2023-04-14T20:59:42.881Z,100842.66
2023-04-14T21:02:09.504Z,100839.97
2023-04-14T21:04:36.052Z,100840.97
2023-04-14T21:07:03.717Z,100772.69
2023-04-14T21:09:30.229Z,100782.66
2023-04-14T21:12:14.685Z,100820.59
2023-04-14T21:15:44.218Z,100831.81
2023-04-14T21:17:29.176Z,100830.00
2023-04-14T21:19:56.015Z,100834.75
2023-04-14T21:22:22.543Z,100829.59
2023-04-14T21:24:49.668Z,100826.38
2023-04-14T21:27:17.272Z,100829.28
2023-04-14T21:29:44.613Z,100831.78
2023-04-14T21:32:11.450Z,100837.13
2023-04-14T21:34:37.960Z,100816.34
2023-04-14T21:37:04.617Z,100830.94
2023-04-14T21:39:33.260Z,100831.78
2023-04-14T21:42:00.447Z,100830.09
2023-04-14T21:44:27.539Z,100771.00
2023-04-14T21:46:54.843Z,100838.00
2023-04-14T21:49:22.060Z,100832.69
2023-04-14T21:51:50.424Z,100811.59
2023-04-14T21:54:17.113Z,100838.41
2023-04-14T21:56:43.658Z,100835.59
2023-04-14T21:59:10.276Z,100823.69
2023-04-14T22:01:36.906Z,100826.38
2023-04-14T22:04:03.565Z,100805.94
2023-04-14T22:06:30.218Z,100820.41
2023-04-14T22:08:56.672Z,100825.66
2023-04-14T22:11:23.215Z,100821.44
2023-04-14T22:13:49.782Z,100821.28
2023-04-14T22:16:16.451Z,100813.59
2023-04-14T22:18:43.028Z,100829.28
2023-04-14T22:21:10.493Z,100816.81
2023-04-14T22:23:38.565Z,100835.19
2023-04-14T22:26:05.175Z,100821.03
2023-04-14T22:28:31.712Z,100800.66
2023-04-14T22:30:58.178Z,100821.59
2023-04-14T22:33:24.649Z,100824.97
2023-04-14T22:35:51.202Z,100817.38
2023-04-14T22:38:17.638Z,100821.72
2023-04-14T22:40:44.200Z,100778.19
2023-04-14T22:43:10.805Z,100794.75
2023-04-14T22:45:38.694Z,100825.25
2023-04-14T22:48:06.798Z,100821.16
2023-04-14T22:50:33.828Z,100825.50
2023-04-14T22:53:00.899Z,100799.22
2023-04-14T22:55:27.619Z,100824.41
2023-04-14T22:57:54.220Z,100817.81
2023-04-14T23:00:21.590Z,100779.28
2023-04-14T23:02:51.610Z,100820.88
2023-04-14T23:05:18.925Z,100815.56
2023-04-14T23:07:45.627Z,100779.59
2023-04-14T23:10:12.085Z,100814.97
2023-04-14T23:12:41.594Z,100816.09
2023-04-14T23:15:08.586Z,100755.03
2023-04-14T23:17:35.271Z,100801.63
2023-04-14T23:20:02.458Z,100808.91
2023-04-14T23:22:29.578Z,100804.00
2023-04-14T23:24:56.095Z,100810.03
2023-04-14T23:27:23.027Z,100807.78
2023-04-14T23:29:49.555Z,100800.91
2023-04-14T23:32:16.263Z,100803.59
2023-04-14T23:34:49.320Z,100793.47
2023-04-14T23:37:15.786Z,100794.19
2023-04-14T23:39:42.227Z,100791.78
2023-04-14T23:42:08.847Z,100776.19
2023-04-14T23:44:35.354Z,100788.84
2023-04-14T23:47:01.970Z,100782.78
2023-04-14T23:49:34.067Z,100758.53
2023-04-14T23:52:02.199Z,100785.59
2023-04-14T23:54:30.679Z,100762.03
2023-04-14T23:56:57.227Z,100791.66
2023-04-14T23:59:23.690Z,100787.28
